sensor_id;sensor_type;location;lat;lon;timestamp;temperature;humidity
23633;DHT22;11993;48.748;9.166;2022-08-03T00:01:46;23.60;53.50
23633;DHT22;11993;48.748;9.166;2022-08-03T00:04:11;23.60;53.60
23633;DHT22;11993;48.748;9.166;2022-08-03T00:06:37;23.50;53.80
23633;DHT22;11993;48.748;9.166;2022-08-03T00:09:04;23.60;53.90
23633;DHT22;11993;48.748;9.166;2022-08-03T00:11:29;23.50;54.00
23633;DHT22;11993;48.748;9.166;2022-08-03T00:13:55;23.50;54.20
23633;DHT22;11993;48.748;9.166;2022-08-03T00:16:20;23.60;54.40
23633;DHT22;11993;48.748;9.166;2022-08-03T00:18:46;23.50;54.40
23633;DHT22;11993;48.748;9.166;2022-08-03T00:21:12;23.40;54.40
23633;DHT22;11993;48.748;9.166;2022-08-03T00:23:37;23.30;54.20
23633;DHT22;11993;48.748;9.166;2022-08-03T00:26:03;23.20;53.80
23633;DHT22;11993;48.748;9.166;2022-08-03T00:28:29;23.10;54.60
23633;DHT22;11993;48.748;9.166;2022-08-03T00:30:54;23.00;55.50
23633;DHT22;11993;48.748;9.166;2022-08-03T00:33:20;22.90;56.20
23633;DHT22;11993;48.748;9.166;2022-08-03T00:35:46;22.90;56.90
23633;DHT22;11993;48.748;9.166;2022-08-03T00:38:12;22.90;57.50
23633;DHT22;11993;48.748;9.166;2022-08-03T00:40:39;22.80;57.60
23633;DHT22;11993;48.748;9.166;2022-08-03T00:43:06;22.70;57.80
23633;DHT22;11993;48.748;9.166;2022-08-03T00:45:34;22.60;58.10
23633;DHT22;11993;48.748;9.166;2022-08-03T00:47:59;22.60;58.20
23633;DHT22;11993;48.748;9.166;2022-08-03T00:50:27;22.60;58.30
23633;DHT22;11993;48.748;9.166;2022-08-03T00:52:56;22.60;58.30
23633;DHT22;11993;48.748;9.166;2022-08-03T00:55:22;22.70;58.40
23633;DHT22;11993;48.748;9.166;2022-08-03T00:57:48;22.70;58.40
23633;DHT22;11993;48.748;9.166;2022-08-03T01:00:20;22.80;58.40
23633;DHT22;11993;48.748;9.166;2022-08-03T01:02:46;22.70;58.40
23633;DHT22;11993;48.748;9.166;2022-08-03T01:05:12;22.70;58.40
23633;DHT22;11993;48.748;9.166;2022-08-03T01:10:38;22.80;58.40
23633;DHT22;11993;48.748;9.166;2022-08-03T01:13:14;22.70;58.40
23633;DHT22;11993;48.748;9.166;2022-08-03T01:15:55;22.60;58.60
23633;DHT22;11993;48.748;9.166;2022-08-03T01:29:37;22.50;59.40
23633;DHT22;11993;48.748;9.166;2022-08-03T01:32:21;22.30;59.80
23633;DHT22;11993;48.748;9.166;2022-08-03T01:35:00;22.30;60.10
23633;DHT22;11993;48.748;9.166;2022-08-03T01:37:34;22.30;60.40
23633;DHT22;11993;48.748;9.166;2022-08-03T01:40:01;22.40;60.20
23633;DHT22;11993;48.748;9.166;2022-08-03T01:42:29;22.40;59.80
23633;DHT22;11993;48.748;9.166;2022-08-03T01:44:56;22.30;59.90
23633;DHT22;11993;48.748;9.166;2022-08-03T01:47:24;22.20;60.00
23633;DHT22;11993;48.748;9.166;2022-08-03T01:49:52;22.30;59.90
23633;DHT22;11993;48.748;9.166;2022-08-03T01:52:20;22.30;59.80
23633;DHT22;11993;48.748;9.166;2022-08-03T01:54:48;22.30;59.80
23633;DHT22;11993;48.748;9.166;2022-08-03T01:57:15;22.30;59.90
23633;DHT22;11993;48.748;9.166;2022-08-03T01:59:42;22.40;59.80
23633;DHT22;11993;48.748;9.166;2022-08-03T02:02:11;22.40;59.50
23633;DHT22;11993;48.748;9.166;2022-08-03T02:04:39;22.40;59.40
23633;DHT22;11993;48.748;9.166;2022-08-03T02:07:05;22.40;59.10
23633;DHT22;11993;48.748;9.166;2022-08-03T02:09:33;22.40;58.90
23633;DHT22;11993;48.748;9.166;2022-08-03T02:12:01;22.30;58.70
23633;DHT22;11993;48.748;9.166;2022-08-03T02:14:28;22.30;58.80
23633;DHT22;11993;48.748;9.166;2022-08-03T02:16:54;22.40;58.60
23633;DHT22;11993;48.748;9.166;2022-08-03T02:19:21;22.50;58.40
23633;DHT22;11993;48.748;9.166;2022-08-03T02:21:48;22.40;58.60
23633;DHT22;11993;48.748;9.166;2022-08-03T02:24:15;22.30;58.80
23633;DHT22;11993;48.748;9.166;2022-08-03T02:26:42;22.20;59.30
23633;DHT22;11993;48.748;9.166;2022-08-03T02:29:20;22.10;59.70
23633;DHT22;11993;48.748;9.166;2022-08-03T02:31:47;22.10;60.30
23633;DHT22;11993;48.748;9.166;2022-08-03T02:34:15;21.90;61.20
23633;DHT22;11993;48.748;9.166;2022-08-03T02:36:43;21.80;61.70
23633;DHT22;11993;48.748;9.166;2022-08-03T02:39:10;21.70;62.10
23633;DHT22;11993;48.748;9.166;2022-08-03T02:41:44;21.60;62.50
23633;DHT22;11993;48.748;9.166;2022-08-03T02:44:11;21.60;62.80
23633;DHT22;11993;48.748;9.166;2022-08-03T02:46:38;21.50;63.30
23633;DHT22;11993;48.748;9.166;2022-08-03T02:49:05;21.40;64.00
23633;DHT22;11993;48.748;9.166;2022-08-03T02:51:34;21.10;64.60
23633;DHT22;11993;48.748;9.166;2022-08-03T02:54:05;21.00;65.60
23633;DHT22;11993;48.748;9.166;2022-08-03T02:56:33;21.00;65.90
23633;DHT22;11993;48.748;9.166;2022-08-03T02:59:00;21.00;66.40
23633;DHT22;11993;48.748;9.166;2022-08-03T03:01:26;21.00;66.50
23633;DHT22;11993;48.748;9.166;2022-08-03T03:03:54;21.10;66.50
23633;DHT22;11993;48.748;9.166;2022-08-03T03:06:20;21.00;66.80
23633;DHT22;11993;48.748;9.166;2022-08-03T03:08:47;20.90;67.10
23633;DHT22;11993;48.748;9.166;2022-08-03T03:11:14;20.90;67.30
23633;DHT22;11993;48.748;9.166;2022-08-03T03:13:43;20.90;67.20
23633;DHT22;11993;48.748;9.166;2022-08-03T03:16:11;20.90;67.20
23633;DHT22;11993;48.748;9.166;2022-08-03T03:18:38;20.90;67.20
23633;DHT22;11993;48.748;9.166;2022-08-03T03:21:06;21.00;67.30
23633;DHT22;11993;48.748;9.166;2022-08-03T03:23:35;21.00;67.40
23633;DHT22;11993;48.748;9.166;2022-08-03T03:26:01;21.00;67.30
23633;DHT22;11993;48.748;9.166;2022-08-03T03:28:27;21.00;67.60
23633;DHT22;11993;48.748;9.166;2022-08-03T03:30:53;20.80;67.90
23633;DHT22;11993;48.748;9.166;2022-08-03T03:33:20;20.80;68.20
23633;DHT22;11993;48.748;9.166;2022-08-03T03:35:46;20.90;68.30
23633;DHT22;11993;48.748;9.166;2022-08-03T03:38:12;21.00;68.10
23633;DHT22;11993;48.748;9.166;2022-08-03T03:40:38;21.00;68.00
23633;DHT22;11993;48.748;9.166;2022-08-03T03:43:07;21.10;68.00
23633;DHT22;11993;48.748;9.166;2022-08-03T03:45:34;21.10;68.00
23633;DHT22;11993;48.748;9.166;2022-08-03T03:48:00;21.10;68.10
23633;DHT22;11993;48.748;9.166;2022-08-03T03:50:27;21.10;68.10
23633;DHT22;11993;48.748;9.166;2022-08-03T03:52:54;21.10;68.20
23633;DHT22;11993;48.748;9.166;2022-08-03T03:55:19;21.20;68.10
23633;DHT22;11993;48.748;9.166;2022-08-03T03:57:45;21.20;67.90
23633;DHT22;11993;48.748;9.166;2022-08-03T04:00:12;21.20;68.00
23633;DHT22;11993;48.748;9.166;2022-08-03T04:02:38;21.10;68.00
23633;DHT22;11993;48.748;9.166;2022-08-03T04:05:05;21.10;68.10
23633;DHT22;11993;48.748;9.166;2022-08-03T04:07:58;21.10;68.10
23633;DHT22;11993;48.748;9.166;2022-08-03T04:10:47;20.90;68.60
23633;DHT22;11993;48.748;9.166;2022-08-03T04:13:36;20.80;68.80
23633;DHT22;11993;48.748;9.166;2022-08-03T04:16:03;20.80;68.70
23633;DHT22;11993;48.748;9.166;2022-08-03T04:18:31;20.70;69.00
23633;DHT22;11993;48.748;9.166;2022-08-03T04:21:01;20.70;68.90
23633;DHT22;11993;48.748;9.166;2022-08-03T04:23:30;20.80;68.80
23633;DHT22;11993;48.748;9.166;2022-08-03T04:25:58;20.70;68.80
23633;DHT22;11993;48.748;9.166;2022-08-03T04:28:26;20.70;68.90
23633;DHT22;11993;48.748;9.166;2022-08-03T04:30:53;20.70;68.80
23633;DHT22;11993;48.748;9.166;2022-08-03T04:33:21;20.70;68.80
23633;DHT22;11993;48.748;9.166;2022-08-03T04:35:50;20.80;68.70
23633;DHT22;11993;48.748;9.166;2022-08-03T04:38:17;20.60;69.10
23633;DHT22;11993;48.748;9.166;2022-08-03T04:40:45;20.60;69.50
23633;DHT22;11993;48.748;9.166;2022-08-03T04:43:13;20.50;70.00
23633;DHT22;11993;48.748;9.166;2022-08-03T04:45:40;20.50;70.30
23633;DHT22;11993;48.748;9.166;2022-08-03T04:48:06;20.20;71.20
23633;DHT22;11993;48.748;9.166;2022-08-03T04:50:32;20.20;71.80
23633;DHT22;11993;48.748;9.166;2022-08-03T04:52:58;20.40;70.90
23633;DHT22;11993;48.748;9.166;2022-08-03T04:55:30;20.50;70.80
23633;DHT22;11993;48.748;9.166;2022-08-03T04:57:57;20.40;71.20
23633;DHT22;11993;48.748;9.166;2022-08-03T05:00:23;20.40;71.00
23633;DHT22;11993;48.748;9.166;2022-08-03T05:02:50;20.40;71.00
23633;DHT22;11993;48.748;9.166;2022-08-03T05:05:16;20.60;70.10
23633;DHT22;11993;48.748;9.166;2022-08-03T05:07:42;20.60;70.20
23633;DHT22;11993;48.748;9.166;2022-08-03T05:10:09;20.60;70.00
23633;DHT22;11993;48.748;9.166;2022-08-03T05:12:35;20.60;70.00
23633;DHT22;11993;48.748;9.166;2022-08-03T05:15:01;20.60;69.60
23633;DHT22;11993;48.748;9.166;2022-08-03T05:17:27;20.60;69.30
23633;DHT22;11993;48.748;9.166;2022-08-03T05:19:53;20.60;68.90
23633;DHT22;11993;48.748;9.166;2022-08-03T05:22:22;20.60;68.70
23633;DHT22;11993;48.748;9.166;2022-08-03T05:24:48;20.80;68.50
23633;DHT22;11993;48.748;9.166;2022-08-03T05:27:13;20.90;67.90
23633;DHT22;11993;48.748;9.166;2022-08-03T05:29:44;21.10;67.10
23633;DHT22;11993;48.748;9.166;2022-08-03T05:32:10;21.10;67.00
23633;DHT22;11993;48.748;9.166;2022-08-03T05:34:36;21.20;66.30
23633;DHT22;11993;48.748;9.166;2022-08-03T05:37:01;21.30;65.80
23633;DHT22;11993;48.748;9.166;2022-08-03T05:39:27;21.30;66.00
23633;DHT22;11993;48.748;9.166;2022-08-03T05:41:52;21.30;66.00
23633;DHT22;11993;48.748;9.166;2022-08-03T05:44:18;21.50;65.50
23633;DHT22;11993;48.748;9.166;2022-08-03T05:46:43;21.50;65.50
23633;DHT22;11993;48.748;9.166;2022-08-03T05:49:09;21.60;65.40
23633;DHT22;11993;48.748;9.166;2022-08-03T05:51:34;21.60;65.60
23633;DHT22;11993;48.748;9.166;2022-08-03T05:54:01;21.70;65.10
23633;DHT22;11993;48.748;9.166;2022-08-03T05:56:27;21.80;64.80
23633;DHT22;11993;48.748;9.166;2022-08-03T05:58:52;21.90;64.90
23633;DHT22;11993;48.748;9.166;2022-08-03T06:01:19;22.00;64.70
23633;DHT22;11993;48.748;9.166;2022-08-03T06:03:48;22.10;64.20
23633;DHT22;11993;48.748;9.166;2022-08-03T06:06:14;22.00;64.20
23633;DHT22;11993;48.748;9.166;2022-08-03T06:08:40;22.20;63.80
23633;DHT22;11993;48.748;9.166;2022-08-03T06:11:07;22.10;64.00
23633;DHT22;11993;48.748;9.166;2022-08-03T06:13:33;22.30;63.50
23633;DHT22;11993;48.748;9.166;2022-08-03T06:15:58;22.40;63.50
23633;DHT22;11993;48.748;9.166;2022-08-03T06:18:24;22.40;63.60
23633;DHT22;11993;48.748;9.166;2022-08-03T06:20:50;22.50;63.70
23633;DHT22;11993;48.748;9.166;2022-08-03T06:23:16;22.60;62.90
23633;DHT22;11993;48.748;9.166;2022-08-03T06:25:42;22.70;62.60
23633;DHT22;11993;48.748;9.166;2022-08-03T06:28:08;22.80;62.50
23633;DHT22;11993;48.748;9.166;2022-08-03T06:30:34;22.90;61.80
23633;DHT22;11993;48.748;9.166;2022-08-03T06:32:59;22.80;61.70
23633;DHT22;11993;48.748;9.166;2022-08-03T06:35:25;23.10;61.00
23633;DHT22;11993;48.748;9.166;2022-08-03T06:37:53;23.20;60.80
23633;DHT22;11993;48.748;9.166;2022-08-03T06:40:20;23.10;61.40
23633;DHT22;11993;48.748;9.166;2022-08-03T06:42:59;23.40;60.30
23633;DHT22;11993;48.748;9.166;2022-08-03T06:45:25;23.40;59.50
23633;DHT22;11993;48.748;9.166;2022-08-03T06:48:05;23.60;59.80
23633;DHT22;11993;48.748;9.166;2022-08-03T06:50:32;23.80;59.90
23633;DHT22;11993;48.748;9.166;2022-08-03T06:52:58;24.00;60.20
23633;DHT22;11993;48.748;9.166;2022-08-03T06:55:24;24.00;59.30
23633;DHT22;11993;48.748;9.166;2022-08-03T06:57:49;24.00;59.90
23633;DHT22;11993;48.748;9.166;2022-08-03T07:00:15;24.10;59.60
23633;DHT22;11993;48.748;9.166;2022-08-03T07:02:41;24.40;59.50
23633;DHT22;11993;48.748;9.166;2022-08-03T07:05:07;24.50;59.10
23633;DHT22;11993;48.748;9.166;2022-08-03T07:07:33;24.60;58.40
23633;DHT22;11993;48.748;9.166;2022-08-03T07:09:59;24.80;57.90
23633;DHT22;11993;48.748;9.166;2022-08-03T07:12:28;24.80;58.00
23633;DHT22;11993;48.748;9.166;2022-08-03T07:14:55;24.90;55.90
23633;DHT22;11993;48.748;9.166;2022-08-03T07:17:20;25.00;56.70
23633;DHT22;11993;48.748;9.166;2022-08-03T07:19:46;25.20;55.80
23633;DHT22;11993;48.748;9.166;2022-08-03T07:22:11;25.30;55.30
23633;DHT22;11993;48.748;9.166;2022-08-03T07:24:37;25.40;54.60
23633;DHT22;11993;48.748;9.166;2022-08-03T07:27:03;25.50;54.20
23633;DHT22;11993;48.748;9.166;2022-08-03T07:29:28;25.60;54.50
23633;DHT22;11993;48.748;9.166;2022-08-03T07:31:54;25.60;53.70
23633;DHT22;11993;48.748;9.166;2022-08-03T07:34:19;25.80;53.30
23633;DHT22;11993;48.748;9.166;2022-08-03T07:36:45;25.70;52.90
23633;DHT22;11993;48.748;9.166;2022-08-03T07:39:11;25.60;52.60
23633;DHT22;11993;48.748;9.166;2022-08-03T07:41:36;26.00;52.30
23633;DHT22;11993;48.748;9.166;2022-08-03T07:44:02;26.10;52.00
23633;DHT22;11993;48.748;9.166;2022-08-03T07:46:28;26.10;52.00
23633;DHT22;11993;48.748;9.166;2022-08-03T07:48:53;26.20;51.20
23633;DHT22;11993;48.748;9.166;2022-08-03T07:51:19;26.30;51.10
23633;DHT22;11993;48.748;9.166;2022-08-03T07:53:44;26.20;51.10
23633;DHT22;11993;48.748;9.166;2022-08-03T07:56:10;26.60;50.40
23633;DHT22;11993;48.748;9.166;2022-08-03T07:58:36;26.60;50.60
23633;DHT22;11993;48.748;9.166;2022-08-03T08:01:01;26.60;50.90
23633;DHT22;11993;48.748;9.166;2022-08-03T08:03:27;26.80;49.70
23633;DHT22;11993;48.748;9.166;2022-08-03T08:05:53;27.00;48.70
23633;DHT22;11993;48.748;9.166;2022-08-03T08:08:19;27.10;49.70
23633;DHT22;11993;48.748;9.166;2022-08-03T08:10:46;27.10;49.30
23633;DHT22;11993;48.748;9.166;2022-08-03T08:13:11;27.30;48.60
23633;DHT22;11993;48.748;9.166;2022-08-03T08:15:37;27.50;48.70
23633;DHT22;11993;48.748;9.166;2022-08-03T08:18:03;27.60;48.00
23633;DHT22;11993;48.748;9.166;2022-08-03T08:20:33;27.80;47.10
23633;DHT22;11993;48.748;9.166;2022-08-03T08:23:04;28.10;47.20
23633;DHT22;11993;48.748;9.166;2022-08-03T08:25:31;28.20;45.80
23633;DHT22;11993;48.748;9.166;2022-08-03T08:27:57;27.90;45.00
23633;DHT22;11993;48.748;9.166;2022-08-03T08:30:26;28.10;45.80
23633;DHT22;11993;48.748;9.166;2022-08-03T08:32:52;28.10;46.70
23633;DHT22;11993;48.748;9.166;2022-08-03T08:35:18;28.30;46.40
23633;DHT22;11993;48.748;9.166;2022-08-03T08:37:44;28.60;45.00
23633;DHT22;11993;48.748;9.166;2022-08-03T08:40:10;28.60;45.20
23633;DHT22;11993;48.748;9.166;2022-08-03T08:42:38;29.00;44.90
23633;DHT22;11993;48.748;9.166;2022-08-03T08:45:04;29.20;44.70
23633;DHT22;11993;48.748;9.166;2022-08-03T08:47:31;29.00;43.60
23633;DHT22;11993;48.748;9.166;2022-08-03T08:49:59;28.70;43.50
23633;DHT22;11993;48.748;9.166;2022-08-03T08:52:27;29.10;43.50
23633;DHT22;11993;48.748;9.166;2022-08-03T08:55:00;29.10;43.50
23633;DHT22;11993;48.748;9.166;2022-08-03T08:57:31;29.10;43.10
23633;DHT22;11993;48.748;9.166;2022-08-03T08:59:57;29.20;43.70
23633;DHT22;11993;48.748;9.166;2022-08-03T09:02:23;29.40;43.20
23633;DHT22;11993;48.748;9.166;2022-08-03T09:04:50;29.30;43.40
23633;DHT22;11993;48.748;9.166;2022-08-03T09:07:16;29.30;42.90
23633;DHT22;11993;48.748;9.166;2022-08-03T09:09:42;29.60;42.50
23633;DHT22;11993;48.748;9.166;2022-08-03T09:12:08;29.50;42.60
23633;DHT22;11993;48.748;9.166;2022-08-03T09:14:34;29.70;42.40
23633;DHT22;11993;48.748;9.166;2022-08-03T09:17:01;30.00;42.10
23633;DHT22;11993;48.748;9.166;2022-08-03T09:19:28;29.90;41.40
23633;DHT22;11993;48.748;9.166;2022-08-03T09:22:14;29.70;41.30
23633;DHT22;11993;48.748;9.166;2022-08-03T09:24:54;30.00;41.90
23633;DHT22;11993;48.748;9.166;2022-08-03T09:27:20;30.40;40.30
23633;DHT22;11993;48.748;9.166;2022-08-03T09:29:48;30.70;40.20
23633;DHT22;11993;48.748;9.166;2022-08-03T09:32:14;30.90;39.50
23633;DHT22;11993;48.748;9.166;2022-08-03T09:34:41;31.10;38.90
23633;DHT22;11993;48.748;9.166;2022-08-03T09:37:17;31.40;38.60
23633;DHT22;11993;48.748;9.166;2022-08-03T09:39:43;31.70;37.50
23633;DHT22;11993;48.748;9.166;2022-08-03T09:42:15;31.60;36.70
23633;DHT22;11993;48.748;9.166;2022-08-03T09:44:46;31.50;35.50
23633;DHT22;11993;48.748;9.166;2022-08-03T09:47:14;31.60;36.50
23633;DHT22;11993;48.748;9.166;2022-08-03T09:49:41;31.50;37.40
23633;DHT22;11993;48.748;9.166;2022-08-03T09:52:18;31.60;36.10
23633;DHT22;11993;48.748;9.166;2022-08-03T09:54:46;31.50;35.60
23633;DHT22;11993;48.748;9.166;2022-08-03T09:57:25;31.20;34.00
23633;DHT22;11993;48.748;9.166;2022-08-03T09:59:51;31.60;34.40
23633;DHT22;11993;48.748;9.166;2022-08-03T10:02:25;31.70;35.40
23633;DHT22;11993;48.748;9.166;2022-08-03T10:04:52;31.50;34.70
23633;DHT22;11993;48.748;9.166;2022-08-03T10:07:20;31.70;34.80
23633;DHT22;11993;48.748;9.166;2022-08-03T10:10:02;31.80;34.40
23633;DHT22;11993;48.748;9.166;2022-08-03T10:12:28;31.90;34.70
23633;DHT22;11993;48.748;9.166;2022-08-03T10:14:54;32.10;34.70
23633;DHT22;11993;48.748;9.166;2022-08-03T10:17:21;32.20;34.60
23633;DHT22;11993;48.748;9.166;2022-08-03T10:19:48;32.70;34.90
23633;DHT22;11993;48.748;9.166;2022-08-03T10:22:17;32.60;34.10
23633;DHT22;11993;48.748;9.166;2022-08-03T10:24:57;32.40;34.10
23633;DHT22;11993;48.748;9.166;2022-08-03T10:27:25;32.80;34.00
23633;DHT22;11993;48.748;9.166;2022-08-03T10:29:55;32.90;34.40
23633;DHT22;11993;48.748;9.166;2022-08-03T10:32:30;33.20;34.10
23633;DHT22;11993;48.748;9.166;2022-08-03T10:35:05;33.10;33.70
23633;DHT22;11993;48.748;9.166;2022-08-03T10:37:36;33.30;32.90
23633;DHT22;11993;48.748;9.166;2022-08-03T10:40:06;33.00;33.50
23633;DHT22;11993;48.748;9.166;2022-08-03T10:42:34;32.90;33.20
23633;DHT22;11993;48.748;9.166;2022-08-03T10:45:03;33.00;32.90
23633;DHT22;11993;48.748;9.166;2022-08-03T10:47:31;33.60;33.20
23633;DHT22;11993;48.748;9.166;2022-08-03T10:49:57;33.50;32.70
23633;DHT22;11993;48.748;9.166;2022-08-03T10:52:23;33.00;32.80
23633;DHT22;11993;48.748;9.166;2022-08-03T10:54:49;33.40;32.80
23633;DHT22;11993;48.748;9.166;2022-08-03T10:57:51;33.60;32.20
23633;DHT22;11993;48.748;9.166;2022-08-03T11:00:25;34.00;31.90
23633;DHT22;11993;48.748;9.166;2022-08-03T11:06:13;33.50;31.60
23633;DHT22;11993;48.748;9.166;2022-08-03T11:08:31;33.40;32.10
23633;DHT22;11993;48.748;9.166;2022-08-03T11:16:28;33.40;32.00
23633;DHT22;11993;48.748;9.166;2022-08-03T11:18:58;33.70;32.40
23633;DHT22;11993;48.748;9.166;2022-08-03T11:46:08;34.60;31.10
23633;DHT22;11993;48.748;9.166;2022-08-03T11:48:39;34.80;31.10
23633;DHT22;11993;48.748;9.166;2022-08-03T11:51:07;34.80;31.60
23633;DHT22;11993;48.748;9.166;2022-08-03T11:53:42;34.60;31.90
23633;DHT22;11993;48.748;9.166;2022-08-03T11:56:08;34.60;32.00
23633;DHT22;11993;48.748;9.166;2022-08-03T11:58:33;34.60;31.70
23633;DHT22;11993;48.748;9.166;2022-08-03T12:01:06;34.70;31.80
23633;DHT22;11993;48.748;9.166;2022-08-03T12:03:33;35.00;31.30
23633;DHT22;11993;48.748;9.166;2022-08-03T12:05:59;35.10;31.30
23633;DHT22;11993;48.748;9.166;2022-08-03T12:08:32;35.30;31.00
23633;DHT22;11993;48.748;9.166;2022-08-03T12:11:01;34.50;31.60
23633;DHT22;11993;48.748;9.166;2022-08-03T12:16:03;34.50;31.60
23633;DHT22;11993;48.748;9.166;2022-08-03T12:18:28;34.50;31.80
23633;DHT22;11993;48.748;9.166;2022-08-03T12:21:04;34.30;32.10
23633;DHT22;11993;48.748;9.166;2022-08-03T12:23:30;34.70;32.20
23633;DHT22;11993;48.748;9.166;2022-08-03T12:26:05;35.00;31.30
23633;DHT22;11993;48.748;9.166;2022-08-03T12:28:30;35.00;31.80
23633;DHT22;11993;48.748;9.166;2022-08-03T12:31:03;35.40;31.10
23633;DHT22;11993;48.748;9.166;2022-08-03T12:33:31;35.70;31.40
23633;DHT22;11993;48.748;9.166;2022-08-03T12:36:07;36.00;31.00
23633;DHT22;11993;48.748;9.166;2022-08-03T12:38:35;36.00;30.20
23633;DHT22;11993;48.748;9.166;2022-08-03T12:41:07;35.70;30.30
23633;DHT22;11993;48.748;9.166;2022-08-03T12:43:36;35.00;31.00
23633;DHT22;11993;48.748;9.166;2022-08-03T12:46:15;35.10;31.10
23633;DHT22;11993;48.748;9.166;2022-08-03T12:51:26;34.90;31.20
23633;DHT22;11993;48.748;9.166;2022-08-03T12:53:53;34.60;31.40
23633;DHT22;11993;48.748;9.166;2022-08-03T12:56:18;34.60;32.00
23633;DHT22;11993;48.748;9.166;2022-08-03T12:58:45;35.10;31.90
23633;DHT22;11993;48.748;9.166;2022-08-03T13:01:12;35.10;31.00
23633;DHT22;11993;48.748;9.166;2022-08-03T13:03:43;35.40;30.60
23633;DHT22;11993;48.748;9.166;2022-08-03T13:06:16;35.60;29.80
23633;DHT22;11993;48.748;9.166;2022-08-03T13:08:42;35.80;30.70
23633;DHT22;11993;48.748;9.166;2022-08-03T13:11:23;35.80;30.00
23633;DHT22;11993;48.748;9.166;2022-08-03T13:13:50;35.90;30.30
23633;DHT22;11993;48.748;9.166;2022-08-03T13:16:15;35.70;30.70
23633;DHT22;11993;48.748;9.166;2022-08-03T13:18:41;36.00;30.60
23633;DHT22;11993;48.748;9.166;2022-08-03T13:21:07;35.50;30.80
23633;DHT22;11993;48.748;9.166;2022-08-03T13:23:32;34.90;31.30
23633;DHT22;11993;48.748;9.166;2022-08-03T13:25:58;34.30;32.30
23633;DHT22;11993;48.748;9.166;2022-08-03T13:28:24;34.60;31.90
23633;DHT22;11993;48.748;9.166;2022-08-03T13:30:49;34.60;32.20
23633;DHT22;11993;48.748;9.166;2022-08-03T13:33:15;35.00;31.40
23633;DHT22;11993;48.748;9.166;2022-08-03T13:35:40;35.40;31.60
23633;DHT22;11993;48.748;9.166;2022-08-03T13:38:07;35.70;31.60
23633;DHT22;11993;48.748;9.166;2022-08-03T13:40:32;35.90;30.80
23633;DHT22;11993;48.748;9.166;2022-08-03T13:42:58;35.80;30.40
23633;DHT22;11993;48.748;9.166;2022-08-03T13:45:24;35.70;30.70
23633;DHT22;11993;48.748;9.166;2022-08-03T13:47:51;35.80;30.50
23633;DHT22;11993;48.748;9.166;2022-08-03T13:50:17;35.70;30.30
23633;DHT22;11993;48.748;9.166;2022-08-03T13:52:42;35.20;30.70
23633;DHT22;11993;48.748;9.166;2022-08-03T13:55:10;35.20;30.40
23633;DHT22;11993;48.748;9.166;2022-08-03T13:57:36;34.80;30.60
23633;DHT22;11993;48.748;9.166;2022-08-03T14:00:03;34.40;31.40
23633;DHT22;11993;48.748;9.166;2022-08-03T14:02:28;34.10;31.40
23633;DHT22;11993;48.748;9.166;2022-08-03T14:04:54;34.20;31.80
23633;DHT22;11993;48.748;9.166;2022-08-03T14:07:19;34.00;31.70
23633;DHT22;11993;48.748;9.166;2022-08-03T14:09:45;34.10;32.00
23633;DHT22;11993;48.748;9.166;2022-08-03T14:12:10;34.30;31.80
23633;DHT22;11993;48.748;9.166;2022-08-03T14:14:36;34.50;31.30
23633;DHT22;11993;48.748;9.166;2022-08-03T14:17:02;34.60;30.70
23633;DHT22;11993;48.748;9.166;2022-08-03T14:19:27;34.50;30.90
23633;DHT22;11993;48.748;9.166;2022-08-03T14:21:53;34.50;31.00
23633;DHT22;11993;48.748;9.166;2022-08-03T14:24:18;34.10;31.30
23633;DHT22;11993;48.748;9.166;2022-08-03T14:26:44;34.50;31.20
23633;DHT22;11993;48.748;9.166;2022-08-03T14:29:09;34.60;30.50
23633;DHT22;11993;48.748;9.166;2022-08-03T14:31:36;34.40;31.10
23633;DHT22;11993;48.748;9.166;2022-08-03T14:34:01;34.50;31.00
23633;DHT22;11993;48.748;9.166;2022-08-03T14:36:27;34.60;30.90
23633;DHT22;11993;48.748;9.166;2022-08-03T14:38:52;34.60;31.00
23633;DHT22;11993;48.748;9.166;2022-08-03T14:41:18;34.60;31.30
23633;DHT22;11993;48.748;9.166;2022-08-03T14:43:43;34.60;31.60
23633;DHT22;11993;48.748;9.166;2022-08-03T14:46:09;34.90;30.80
23633;DHT22;11993;48.748;9.166;2022-08-03T14:48:34;34.80;30.80
23633;DHT22;11993;48.748;9.166;2022-08-03T14:51:00;34.50;31.70
23633;DHT22;11993;48.748;9.166;2022-08-03T14:53:29;34.00;32.10
23633;DHT22;11993;48.748;9.166;2022-08-03T14:55:55;33.70;32.20
23633;DHT22;11993;48.748;9.166;2022-08-03T14:58:21;33.60;32.60
23633;DHT22;11993;48.748;9.166;2022-08-03T15:00:48;33.70;32.70
23633;DHT22;11993;48.748;9.166;2022-08-03T15:03:14;33.60;32.60
23633;DHT22;11993;48.748;9.166;2022-08-03T15:05:40;33.10;32.70
23633;DHT22;11993;48.748;9.166;2022-08-03T15:08:05;33.50;32.80
23633;DHT22;11993;48.748;9.166;2022-08-03T15:10:31;33.40;32.80
23633;DHT22;11993;48.748;9.166;2022-08-03T15:12:57;33.30;32.80
23633;DHT22;11993;48.748;9.166;2022-08-03T15:15:22;33.50;32.60
23633;DHT22;11993;48.748;9.166;2022-08-03T15:17:48;33.50;32.80
23633;DHT22;11993;48.748;9.166;2022-08-03T15:20:13;33.30;33.00
23633;DHT22;11993;48.748;9.166;2022-08-03T15:22:39;33.10;33.40
23633;DHT22;11993;48.748;9.166;2022-08-03T15:25:05;33.00;33.00
23633;DHT22;11993;48.748;9.166;2022-08-03T15:27:31;33.00;32.90
23633;DHT22;11993;48.748;9.166;2022-08-03T15:29:57;33.00;33.50
23633;DHT22;11993;48.748;9.166;2022-08-03T15:32:22;32.90;33.60
23633;DHT22;11993;48.748;9.166;2022-08-03T15:34:48;32.90;33.50
23633;DHT22;11993;48.748;9.166;2022-08-03T15:37:14;32.90;33.70
23633;DHT22;11993;48.748;9.166;2022-08-03T15:39:39;33.00;33.10
23633;DHT22;11993;48.748;9.166;2022-08-03T15:42:05;33.00;33.30
23633;DHT22;11993;48.748;9.166;2022-08-03T15:44:30;32.80;33.60
23633;DHT22;11993;48.748;9.166;2022-08-03T15:46:56;33.00;33.60
23633;DHT22;11993;48.748;9.166;2022-08-03T15:49:21;32.80;33.80
23633;DHT22;11993;48.748;9.166;2022-08-03T15:51:47;32.60;33.80
23633;DHT22;11993;48.748;9.166;2022-08-03T15:54:12;32.70;34.10
23633;DHT22;11993;48.748;9.166;2022-08-03T15:56:38;32.70;33.70
23633;DHT22;11993;48.748;9.166;2022-08-03T15:59:05;32.60;33.90
23633;DHT22;11993;48.748;9.166;2022-08-03T16:01:31;32.50;34.10
23633;DHT22;11993;48.748;9.166;2022-08-03T16:03:57;32.20;34.20
23633;DHT22;11993;48.748;9.166;2022-08-03T16:06:22;32.20;34.30
23633;DHT22;11993;48.748;9.166;2022-08-03T16:08:48;32.30;34.30
23633;DHT22;11993;48.748;9.166;2022-08-03T16:11:14;32.30;34.30
23633;DHT22;11993;48.748;9.166;2022-08-03T16:13:40;32.30;34.30
23633;DHT22;11993;48.748;9.166;2022-08-03T16:16:05;32.30;34.50
23633;DHT22;11993;48.748;9.166;2022-08-03T16:18:31;32.30;34.40
23633;DHT22;11993;48.748;9.166;2022-08-03T16:20:57;32.30;34.30
23633;DHT22;11993;48.748;9.166;2022-08-03T16:23:23;32.30;34.40
23633;DHT22;11993;48.748;9.166;2022-08-03T16:25:48;32.30;34.20